createdAt,value
2022-10-19T00:02:16.693Z,100906.47
2022-10-19T00:04:44.367Z,100911.19
2022-10-19T00:07:12.056Z,100914.22
2022-10-19T00:09:39.683Z,100916.97
2022-10-19T00:12:10.035Z,100916.06
2022-10-19T00:14:37.503Z,100920.00
2022-10-19T00:17:05.269Z,100915.47
2022-10-19T00:19:32.658Z,100912.59
2022-10-19T00:22:00.060Z,100907.75
2022-10-19T00:24:29.834Z,100908.66
2022-10-19T00:26:57.933Z,100903.09
2022-10-19T00:29:25.460Z,100897.78
2022-10-19T00:31:52.819Z,100900.78
2022-10-19T00:34:20.259Z,100890.41
2022-10-19T00:36:47.661Z,100884.97
2022-10-19T00:39:16.683Z,100880.69
2022-10-19T00:41:46.199Z,100873.50
2022-10-19T00:44:13.756Z,100874.69
2022-10-19T00:46:46.519Z,100866.00
2022-10-19T00:49:26.422Z,100859.75
2022-10-19T00:51:58.220Z,100851.88
2022-10-19T00:54:26.036Z,100851.78
2022-10-19T00:56:57.726Z,100850.84
2022-10-19T00:59:27.688Z,100847.34
2022-10-19T01:01:55.470Z,100839.84
2022-10-19T01:04:26.202Z,100836.38
2022-10-19T01:06:54.665Z,100833.94
2022-10-19T01:09:22.179Z,100831.28
2022-10-19T01:11:57.734Z,100827.13
2022-10-19T01:14:37.879Z,100823.31
2022-10-19T01:17:20.411Z,100816.97
2022-10-19T01:20:15.889Z,100805.53
2022-10-19T01:22:45.729Z,100804.94
2022-10-19T01:25:23.786Z,100796.75
2022-10-19T01:27:59.908Z,100793.41
2022-10-19T01:30:58.942Z,100797.44
2022-10-19T01:33:42.753Z,100797.19
2022-10-19T01:36:24.036Z,100797.78
2022-10-19T01:39:06.784Z,100799.97
2022-10-19T01:42:02.263Z,100801.75
2022-10-19T01:44:40.377Z,100799.91
2022-10-19T01:47:18.168Z,100791.63
2022-10-19T01:49:54.500Z,100786.50
2022-10-19T01:52:25.685Z,100791.00
2022-10-19T01:54:57.484Z,100777.81
2022-10-19T01:57:37.629Z,100783.97
2022-10-19T02:00:08.055Z,100772.94
2022-10-19T02:02:42.893Z,100775.81
2022-10-19T02:05:12.661Z,100770.00
2022-10-19T02:07:46.513Z,100765.19
2022-10-19T02:12:46.476Z,100768.47
2022-10-19T02:15:19.875Z,100759.03
2022-10-19T02:17:51.463Z,100758.00
2022-10-19T02:20:20.217Z,100756.56
2022-10-19T02:22:48.296Z,100758.66
2022-10-19T02:25:16.317Z,100757.63
2022-10-19T02:27:43.966Z,100759.56
2022-10-19T02:30:14.669Z,100761.22
2022-10-19T02:32:43.532Z,100765.28
2022-10-19T02:35:14.512Z,100761.13
2022-10-19T02:37:45.011Z,100764.50
2022-10-19T02:40:12.993Z,100765.47
2022-10-19T02:42:58.775Z,100777.94
2022-10-19T02:45:31.047Z,100771.59
2022-10-19T02:48:07.506Z,100771.75
2022-10-19T02:50:35.359Z,100768.50
2022-10-19T02:53:03.062Z,100764.38
2022-10-19T02:55:31.360Z,100766.34
2022-10-19T02:57:58.885Z,100753.03
2022-10-19T03:00:26.222Z,100764.38
2022-10-19T03:02:54.672Z,100750.22
2022-10-19T03:05:25.033Z,100740.66
2022-10-19T03:07:52.436Z,100736.75
2022-10-19T03:10:19.883Z,100725.81
2022-10-19T03:12:47.357Z,100727.88
2022-10-19T03:15:19.355Z,100727.78
2022-10-19T03:17:46.807Z,100728.97
2022-10-19T03:20:14.201Z,100723.97
2022-10-19T03:22:41.654Z,100731.50
2022-10-19T03:25:09.307Z,100726.63
2022-10-19T03:27:36.969Z,100727.25
2022-10-19T03:30:08.013Z,100719.56
2022-10-19T03:32:38.704Z,100720.03
2022-10-19T03:35:06.746Z,100724.66
2022-10-19T03:37:34.306Z,100716.13
2022-10-19T03:40:02.768Z,100725.53
2022-10-19T03:42:30.145Z,100732.47
2022-10-19T03:44:57.641Z,100726.66
2022-10-19T03:47:25.177Z,100715.97
2022-10-19T03:49:52.696Z,100730.81
2022-10-19T03:52:20.863Z,100722.47
2022-10-19T03:54:51.747Z,100721.13
2022-10-19T03:57:19.883Z,100732.44
2022-10-19T03:59:47.275Z,100720.38
2022-10-19T04:02:14.941Z,100718.13
2022-10-19T04:04:42.382Z,100714.56
2022-10-19T04:07:09.794Z,100723.19
2022-10-19T04:09:37.214Z,100723.34
2022-10-19T04:12:18.138Z,100712.28
2022-10-19T04:14:56.977Z,100709.50
2022-10-19T04:17:25.815Z,100710.22
2022-10-19T04:19:53.904Z,100705.38
2022-10-19T04:22:24.678Z,100707.22
2022-10-19T04:24:53.838Z,100705.00
2022-10-19T04:27:21.792Z,100701.69
2022-10-19T04:29:53.463Z,100712.41
2022-10-19T04:32:24.202Z,100695.59
2022-10-19T04:34:55.354Z,100694.31
2022-10-19T04:37:31.934Z,100690.91
2022-10-19T04:40:03.976Z,100684.00
2022-10-19T04:42:32.423Z,100683.88
2022-10-19T04:45:03.292Z,100686.06
2022-10-19T04:47:31.844Z,100677.44
2022-10-19T04:50:06.074Z,100671.06
2022-10-19T04:52:34.585Z,100678.44
2022-10-19T04:55:07.038Z,100672.41
2022-10-19T04:57:44.339Z,100685.78
2022-10-19T05:00:16.489Z,100680.34
2022-10-19T05:02:48.597Z,100677.50
2022-10-19T05:05:37.287Z,100666.84
2022-10-19T05:08:07.868Z,100662.56
2022-10-19T05:10:37.664Z,100669.19
2022-10-19T05:13:05.424Z,100673.31
2022-10-19T05:15:33.507Z,100674.66
2022-10-19T05:18:01.018Z,100666.25
2022-10-19T05:20:28.656Z,100667.81
2022-10-19T05:22:56.127Z,100667.88
2022-10-19T05:25:24.049Z,100670.94
2022-10-19T05:27:53.098Z,100670.22
2022-10-19T05:30:24.112Z,100658.91
2022-10-19T05:32:57.058Z,100660.00
2022-10-19T05:35:32.313Z,100662.31
2022-10-19T05:37:59.889Z,100664.47
2022-10-19T05:40:30.515Z,100666.38
2022-10-19T05:43:00.254Z,100675.34
2022-10-19T05:45:27.706Z,100662.03
2022-10-19T05:47:59.045Z,100657.28
2022-10-19T05:50:26.594Z,100655.06
2022-10-19T05:52:54.006Z,100668.00
2022-10-19T05:55:21.447Z,100665.22
2022-10-19T05:57:48.731Z,100670.84
2022-10-19T06:00:16.584Z,100665.94
2022-10-19T06:02:46.804Z,100664.66
2022-10-19T06:05:17.724Z,100666.72
2022-10-19T06:07:45.298Z,100659.16
2022-10-19T06:10:12.838Z,100666.38
2022-10-19T06:12:43.730Z,100666.72
2022-10-19T06:15:14.033Z,100659.22
2022-10-19T06:17:44.454Z,100666.97
2022-10-19T06:20:14.929Z,100658.84
2022-10-19T06:22:45.242Z,100666.47
2022-10-19T06:25:20.296Z,100659.38
2022-10-19T06:27:50.553Z,100666.31
2022-10-19T06:30:21.087Z,100682.63
2022-10-19T06:32:49.254Z,100672.50
2022-10-19T06:35:17.352Z,100679.09
2022-10-19T06:37:47.532Z,100668.50
2022-10-19T06:40:18.146Z,100667.09
2022-10-19T06:42:45.847Z,100677.84
2022-10-19T06:45:19.564Z,100666.72
2022-10-19T06:50:14.590Z,100659.94
2022-10-19T06:52:41.982Z,100662.94
2022-10-19T06:55:12.302Z,100660.91
2022-10-19T06:57:40.084Z,100663.13
2022-10-19T07:00:11.582Z,100665.38
2022-10-19T07:02:42.782Z,100663.69
2022-10-19T07:05:12.981Z,100657.25
2022-10-19T07:07:40.490Z,100655.97
2022-10-19T07:10:08.474Z,100654.03
2022-10-19T07:12:39.221Z,100646.28
2022-10-19T07:15:07.042Z,100644.28
2022-10-19T07:17:38.333Z,100647.41
2022-10-19T07:20:09.275Z,100660.53
2022-10-19T07:22:40.236Z,100650.69
2022-10-19T07:25:11.814Z,100653.56
2022-10-19T07:27:43.636Z,100648.88
2022-10-19T07:30:14.353Z,100643.91
2022-10-19T07:32:47.080Z,100643.81
2022-10-19T07:35:17.564Z,100640.00
2022-10-19T07:37:45.066Z,100635.47
2022-10-19T07:40:13.236Z,100645.59
2022-10-19T07:42:44.079Z,100645.97
2022-10-19T07:45:11.631Z,100636.84
2022-10-19T07:47:45.695Z,100639.72
2022-10-19T07:50:20.633Z,100632.88
2022-10-19T07:52:55.994Z,100618.34
2022-10-19T07:55:23.735Z,100620.34
2022-10-19T07:57:57.083Z,100618.56
2022-10-19T08:00:27.596Z,100612.03
2022-10-19T08:03:31.665Z,100609.22
2022-10-19T08:05:59.968Z,100607.19
2022-10-19T08:08:34.077Z,100594.75
2022-10-19T08:11:19.794Z,100592.22
2022-10-19T08:13:50.793Z,100592.28
2022-10-19T08:16:27.549Z,100592.63
2022-10-19T08:19:04.297Z,100587.13
2022-10-19T08:21:34.986Z,100590.72
2022-10-19T08:24:03.471Z,100595.34
2022-10-19T08:26:34.140Z,100588.13
2022-10-19T08:29:13.461Z,100580.91
2022-10-19T08:31:41.745Z,100582.56
2022-10-19T08:34:12.127Z,100589.53
2022-10-19T08:36:39.844Z,100577.75
2022-10-19T08:39:10.853Z,100569.47
2022-10-19T08:41:52.177Z,100564.38
2022-10-19T08:44:50.375Z,100569.69
2022-10-19T08:47:37.287Z,100565.31
2022-10-19T08:50:21.601Z,100564.16
2022-10-19T08:53:02.566Z,100559.81
2022-10-19T08:55:59.701Z,100557.84
2022-10-19T08:59:03.959Z,100560.03
2022-10-19T09:01:37.800Z,100564.13
2022-10-19T09:04:08.287Z,100560.25
2022-10-19T09:06:44.048Z,100560.09
2022-10-19T09:09:13.865Z,100548.66
2022-10-19T09:11:50.691Z,100556.28
2022-10-19T09:14:25.789Z,100551.13
2022-10-19T09:17:10.810Z,100540.59
2022-10-19T09:19:38.376Z,100544.72
2022-10-19T09:22:35.799Z,100544.09
2022-10-19T09:25:13.686Z,100553.84
2022-10-19T09:27:44.151Z,100548.66
2022-10-19T09:30:21.262Z,100543.25
2022-10-19T09:32:55.952Z,100534.00
2022-10-19T09:35:28.478Z,100532.34
2022-10-19T09:37:57.110Z,100539.47
2022-10-19T09:40:28.269Z,100534.59
2022-10-19T09:42:56.875Z,100531.56
2022-10-19T09:45:45.113Z,100530.88
2022-10-19T09:48:54.120Z,100523.75
2022-10-19T09:51:24.936Z,100512.44
2022-10-19T09:53:57.721Z,100515.00
2022-10-19T09:56:28.169Z,100511.19
2022-10-19T09:58:58.491Z,100509.00
2022-10-19T10:01:41.876Z,100506.91
2022-10-19T10:04:20.574Z,100505.72
2022-10-19T10:06:49.842Z,100492.44
2022-10-19T10:09:22.304Z,100491.19
2022-10-19T10:14:33.514Z,100492.44
2022-10-19T10:17:05.653Z,100486.41
2022-10-19T10:19:36.599Z,100473.81
2022-10-19T10:22:04.463Z,100476.34
2022-10-19T10:24:33.752Z,100479.41
2022-10-19T10:27:04.213Z,100475.53
2022-10-19T10:29:35.683Z,100481.13
2022-10-19T10:32:06.163Z,100466.28
2022-10-19T10:34:58.406Z,100461.66
2022-10-19T10:37:43.224Z,100450.47
2022-10-19T10:40:23.641Z,100451.00
2022-10-19T10:42:54.296Z,100441.03
2022-10-19T10:45:32.591Z,100442.44
2022-10-19T10:48:12.820Z,100426.84
2022-10-19T10:50:43.874Z,100435.97
2022-10-19T10:53:35.894Z,100421.00
2022-10-19T10:56:04.789Z,100416.50
2022-10-19T10:58:53.871Z,100412.25
2022-10-19T11:01:28.923Z,100409.59
2022-10-19T11:04:26.143Z,100411.06
2022-10-19T11:07:08.436Z,100405.34
2022-10-19T11:09:42.510Z,100403.00
2022-10-19T11:12:16.253Z,100405.72
2022-10-19T11:15:03.087Z,100404.81
2022-10-19T11:17:36.714Z,100414.38
2022-10-19T11:20:07.551Z,100405.22
2022-10-19T11:22:40.736Z,100403.84
2022-10-19T11:25:38.254Z,100407.09
2022-10-19T11:28:37.081Z,100396.63
2022-10-19T11:31:31.928Z,100398.47
2022-10-19T11:34:08.882Z,100385.38
2022-10-19T11:36:50.434Z,100375.22
2022-10-19T11:39:51.713Z,100374.88
2022-10-19T11:43:01.113Z,100368.59
2022-10-19T11:45:54.446Z,100359.41
2022-10-19T11:48:32.680Z,100354.31
2022-10-19T11:51:21.009Z,100343.31
2022-10-19T11:53:52.289Z,100345.38
2022-10-19T11:56:44.656Z,100335.81
2022-10-19T12:00:13.616Z,100334.41
2022-10-19T12:03:19.836Z,100327.50
2022-10-19T12:06:14.081Z,100320.78
2022-10-19T12:09:18.335Z,100312.31
2022-10-19T12:11:51.915Z,100311.69
2022-10-19T12:14:26.061Z,100319.19
2022-10-19T12:17:01.138Z,100326.94
2022-10-19T12:19:39.406Z,100326.50
2022-10-19T12:22:15.252Z,100311.69
2022-10-19T12:24:42.773Z,100318.00
2022-10-19T12:27:18.600Z,100305.94
2022-10-19T12:29:49.593Z,100309.66
2022-10-19T12:32:19.859Z,100303.81
2022-10-19T12:34:53.755Z,100297.59
2022-10-19T12:37:44.651Z,100289.47
2022-10-19T12:40:27.930Z,100297.53
2022-10-19T12:43:01.539Z,100288.94
2022-10-19T12:46:01.238Z,100288.91
2022-10-19T12:48:32.022Z,100294.81
2022-10-19T12:51:07.977Z,100291.97
2022-10-19T12:53:38.180Z,100287.66
2022-10-19T12:56:25.268Z,100284.97
2022-10-19T12:58:59.041Z,100280.03
2022-10-19T13:01:43.849Z,100278.72
2022-10-19T13:04:21.716Z,100280.63
2022-10-19T13:06:59.473Z,100286.19
2022-10-19T13:09:35.839Z,100276.16
2022-10-19T13:12:19.496Z,100277.44
2022-10-19T13:14:55.784Z,100273.91
2022-10-19T13:17:38.778Z,100278.16
2022-10-19T13:20:13.823Z,100254.88
2022-10-19T13:22:48.799Z,100272.59
2022-10-19T13:25:16.294Z,100263.31
2022-10-19T13:27:48.932Z,100251.53
2022-10-19T13:30:49.011Z,100249.22
2022-10-19T13:33:25.667Z,100245.44
2022-10-19T13:35:59.107Z,100247.03
2022-10-19T13:41:25.287Z,100253.31
2022-10-19T13:44:14.207Z,100249.75
2022-10-19T13:47:29.090Z,100243.00
2022-10-19T13:50:30.632Z,100243.53
2022-10-19T13:53:11.681Z,100237.31
2022-10-19T13:56:01.889Z,100240.50
2022-10-19T13:58:41.464Z,100239.41
2022-10-19T14:01:38.470Z,100236.84
2022-10-19T14:04:21.591Z,100233.69
2022-10-19T14:07:01.144Z,100237.97
2022-10-19T14:09:43.879Z,100235.59
2022-10-19T14:12:16.369Z,100232.00
2022-10-19T14:14:45.353Z,100232.28
2022-10-19T14:17:24.840Z,100230.91
2022-10-19T14:19:55.284Z,100231.75
2022-10-19T14:22:34.064Z,100223.28
2022-10-19T14:25:17.681Z,100228.44
2022-10-19T14:27:46.715Z,100218.81
2022-10-19T14:30:29.571Z,100216.09
2022-10-19T14:33:01.141Z,100213.44
2022-10-19T14:35:36.201Z,100204.97
2022-10-19T14:38:08.901Z,100203.38
2022-10-19T14:40:41.175Z,100199.78
2022-10-19T14:43:26.698Z,100198.06
2022-10-19T14:46:06.984Z,100195.28
2022-10-19T14:48:37.033Z,100208.19
2022-10-19T14:51:29.885Z,100200.28
2022-10-19T14:54:08.337Z,100196.13
2022-10-19T14:56:44.979Z,100197.44
2022-10-19T14:59:30.713Z,100198.25
2022-10-19T15:02:01.060Z,100190.97
2022-10-19T15:04:37.211Z,100196.75
2022-10-19T15:07:16.866Z,100196.44
2022-10-19T15:09:53.995Z,100195.34
2022-10-19T15:12:27.271Z,100192.63
2022-10-19T15:14:55.165Z,100190.84
2022-10-19T15:17:30.959Z,100193.44
2022-10-19T15:20:00.346Z,100196.94
2022-10-19T15:22:39.130Z,100187.25
2022-10-19T15:25:13.492Z,100196.91
2022-10-19T15:27:44.708Z,100200.56
2022-10-19T15:30:18.125Z,100195.66
2022-10-19T15:33:09.926Z,100198.19
2022-10-19T15:35:44.066Z,100204.88
2022-10-19T15:38:14.342Z,100205.66
2022-10-19T15:40:45.839Z,100214.25
2022-10-19T15:43:36.036Z,100206.78
2022-10-19T15:46:25.934Z,100219.72
2022-10-19T15:48:55.730Z,100215.50
2022-10-19T15:51:23.853Z,100211.53
2022-10-19T15:53:53.278Z,100214.56
2022-10-19T15:56:22.557Z,100218.38
2022-10-19T15:58:57.692Z,100213.25
2022-10-19T16:01:30.722Z,100217.22
2022-10-19T16:03:59.285Z,100221.31
2022-10-19T16:06:30.402Z,100221.97
2022-10-19T16:08:58.394Z,100223.53
2022-10-19T16:11:26.973Z,100228.28
2022-10-19T16:13:54.665Z,100233.72
2022-10-19T16:16:25.387Z,100232.13
2022-10-19T16:18:56.996Z,100233.09
2022-10-19T16:21:33.358Z,100236.91
2022-10-19T16:24:01.592Z,100241.84
2022-10-19T16:26:29.575Z,100238.97
2022-10-19T16:28:57.121Z,100238.28
2022-10-19T16:31:25.205Z,100236.19
2022-10-19T16:33:53.008Z,100240.59
2022-10-19T16:36:29.513Z,100246.34
2022-10-19T16:39:02.641Z,100247.38
2022-10-19T16:41:33.596Z,100249.09
2022-10-19T16:44:04.894Z,100252.16
2022-10-19T16:46:33.381Z,100255.00
2022-10-19T16:49:04.126Z,100256.84
2022-10-19T16:51:40.087Z,100253.91
2022-10-19T16:54:10.433Z,100258.31
2022-10-19T16:56:43.225Z,100265.56
2022-10-19T16:59:12.750Z,100264.19
2022-10-19T17:01:41.466Z,100273.00
2022-10-19T17:04:08.970Z,100276.81
2022-10-19T17:06:36.750Z,100272.63
2022-10-19T17:11:55.888Z,100271.88
2022-10-19T17:14:23.227Z,100276.47
2022-10-19T17:16:51.117Z,100276.47
2022-10-19T17:19:18.654Z,100284.28
2022-10-19T17:21:47.005Z,100287.38
2022-10-19T17:24:21.955Z,100278.19
2022-10-19T17:26:52.023Z,100293.25
2022-10-19T17:29:20.855Z,100294.72
2022-10-19T17:31:49.507Z,100297.44
2022-10-19T17:34:17.780Z,100295.97
2022-10-19T17:36:48.172Z,100304.34
2022-10-19T17:39:25.552Z,100295.56
2022-10-19T17:41:58.189Z,100286.56
2022-10-19T17:44:28.752Z,100295.25
2022-10-19T17:46:56.067Z,100297.66
2022-10-19T17:49:32.384Z,100299.63
2022-10-19T17:51:59.766Z,100299.53
2022-10-19T17:54:27.926Z,100295.25
2022-10-19T17:56:55.841Z,100303.19
2022-10-19T17:59:34.771Z,100297.63
2022-10-19T18:02:10.283Z,100300.19
2022-10-19T18:04:40.934Z,100303.38
2022-10-19T18:07:08.301Z,100298.97
2022-10-19T18:09:36.105Z,100303.78
2022-10-19T18:12:04.885Z,100303.47
2022-10-19T18:14:34.796Z,100298.00
2022-10-19T18:17:02.341Z,100298.66
2022-10-19T18:19:29.884Z,100299.84
2022-10-19T18:21:57.223Z,100303.00
2022-10-19T18:24:24.641Z,100302.13
2022-10-19T18:26:55.170Z,100300.09
2022-10-19T18:29:25.031Z,100307.66
2022-10-19T18:31:53.195Z,100302.28
2022-10-19T18:34:23.634Z,100316.66
2022-10-19T18:36:52.127Z,100317.28
2022-10-19T18:39:20.177Z,100314.34
2022-10-19T18:41:51.040Z,100319.25
2022-10-19T18:44:23.533Z,100323.91
2022-10-19T18:46:54.353Z,100324.69
2022-10-19T18:49:23.125Z,100320.53
2022-10-19T18:51:55.413Z,100331.81
2022-10-19T18:54:25.268Z,100337.28
2022-10-19T18:56:52.758Z,100329.78
2022-10-19T18:59:20.791Z,100337.03
2022-10-19T19:01:49.012Z,100335.75
2022-10-19T19:04:16.533Z,100343.28
2022-10-19T19:06:46.607Z,100344.81
2022-10-19T19:09:14.254Z,100348.91
2022-10-19T19:11:50.927Z,100347.22
2022-10-19T19:14:19.157Z,100359.41
2022-10-19T19:16:49.370Z,100365.84
2022-10-19T19:19:18.582Z,100368.31
2022-10-19T19:21:46.470Z,100377.69
2022-10-19T19:24:20.673Z,100378.41
2022-10-19T19:26:52.838Z,100399.91
2022-10-19T19:29:21.708Z,100397.44
2022-10-19T19:31:49.714Z,100395.63
2022-10-19T19:34:17.955Z,100400.72
2022-10-19T19:36:45.568Z,100414.09
2022-10-19T19:39:15.000Z,100405.94
2022-10-19T19:41:43.416Z,100417.66
2022-10-19T19:44:11.030Z,100423.94
2022-10-19T19:46:38.794Z,100424.53
2022-10-19T19:49:06.346Z,100428.84
2022-10-19T19:51:34.292Z,100434.22
2022-10-19T19:54:01.861Z,100443.91
2022-10-19T19:56:29.332Z,100448.19
2022-10-19T19:59:00.593Z,100451.50
2022-10-19T20:01:31.311Z,100455.28
2022-10-19T20:04:00.181Z,100459.63
2022-10-19T20:06:27.948Z,100459.09
2022-10-19T20:08:56.468Z,100464.81
2022-10-19T20:11:26.245Z,100461.31
2022-10-19T20:13:54.219Z,100472.41
2022-10-19T20:16:28.209Z,100464.06
2022-10-19T20:19:10.516Z,100470.13
2022-10-19T20:21:38.559Z,100471.19
2022-10-19T20:24:06.989Z,100481.28
2022-10-19T20:26:36.989Z,100478.09
2022-10-19T20:29:05.539Z,100486.41
2022-10-19T20:31:33.037Z,100484.84
2022-10-19T20:34:00.570Z,100484.31
2022-10-19T20:36:30.635Z,100486.47
2022-10-19T20:39:05.416Z,100482.75
2022-10-19T20:41:33.534Z,100485.66
2022-10-19T20:44:01.155Z,100480.63
2022-10-19T20:46:30.129Z,100484.38
2022-10-19T20:48:59.953Z,100494.06
2022-10-19T20:51:33.068Z,100495.34
2022-10-19T20:54:05.903Z,100501.84
2022-10-19T20:56:36.154Z,100509.34
2022-10-19T20:59:07.415Z,100513.03
2022-10-19T21:01:37.879Z,100506.75
2022-10-19T21:04:07.686Z,100504.81
2022-10-19T21:06:39.074Z,100514.78
2022-10-19T21:09:06.701Z,100508.31
2022-10-19T21:11:37.290Z,100513.94
2022-10-19T21:14:07.757Z,100525.00
2022-10-19T21:16:35.096Z,100532.94
2022-10-19T21:19:04.372Z,100536.63
2022-10-19T21:21:41.158Z,100539.78
2022-10-19T21:24:13.161Z,100539.50
2022-10-19T21:26:40.712Z,100537.69
2022-10-19T21:29:09.883Z,100539.25
2022-10-19T21:31:42.178Z,100533.16
2022-10-19T21:34:19.712Z,100530.72
2022-10-19T21:36:48.355Z,100545.03
2022-10-19T21:39:16.509Z,100542.38
2022-10-19T21:41:44.580Z,100550.41
2022-10-19T21:44:15.187Z,100541.28
2022-10-19T21:46:42.770Z,100532.41
2022-10-19T21:49:13.555Z,100548.25
2022-10-19T21:51:43.211Z,100549.88
2022-10-19T21:54:16.886Z,100550.44
2022-10-19T21:56:45.071Z,100552.56
2022-10-19T21:59:13.497Z,100553.38
2022-10-19T22:01:41.859Z,100556.88
2022-10-19T22:04:14.045Z,100554.75
2022-10-19T22:06:42.376Z,100546.97
2022-10-19T22:09:14.126Z,100551.00
2022-10-19T22:11:41.613Z,100551.53
2022-10-19T22:14:11.883Z,100552.88
2022-10-19T22:16:40.506Z,100555.56
2022-10-19T22:19:07.974Z,100544.03
2022-10-19T22:21:35.704Z,100556.09
2022-10-19T22:24:10.114Z,100563.34
2022-10-19T22:26:41.281Z,100566.81
2022-10-19T22:29:09.055Z,100565.16
2022-10-19T22:31:42.818Z,100560.94
2022-10-19T22:34:14.053Z,100570.53
2022-10-19T22:36:41.549Z,100567.59
2022-10-19T22:39:09.533Z,100575.09
2022-10-19T22:41:40.127Z,100574.84
2022-10-19T22:44:07.684Z,100573.22
2022-10-19T22:46:35.231Z,100576.69
2022-10-19T22:49:02.690Z,100579.91
2022-10-19T22:51:30.207Z,100588.72
2022-10-19T22:53:57.500Z,100591.16
2022-10-19T22:56:24.880Z,100591.69
2022-10-19T22:58:52.423Z,100587.94
2022-10-19T23:01:19.987Z,100581.50
2022-10-19T23:03:47.410Z,100581.00
2022-10-19T23:06:15.799Z,100574.53
2022-10-19T23:08:44.318Z,100570.25
2022-10-19T23:11:12.367Z,100569.44
2022-10-19T23:13:40.871Z,100577.47
2022-10-19T23:16:10.926Z,100575.84
2022-10-19T23:18:40.361Z,100576.94
2022-10-19T23:21:13.055Z,100589.25
2022-10-19T23:23:43.774Z,100595.16
2022-10-19T23:26:14.098Z,100588.72
2022-10-19T23:28:48.808Z,100601.56
2022-10-19T23:31:22.190Z,100594.34
2022-10-19T23:33:50.074Z,100597.75
2022-10-19T23:36:21.136Z,100591.84
2022-10-19T23:38:50.041Z,100594.53
2022-10-19T23:41:18.580Z,100603.94
2022-10-19T23:43:46.470Z,100600.19
2022-10-19T23:46:14.050Z,100605.47
2022-10-19T23:48:41.731Z,100608.13
2022-10-19T23:51:17.292Z,100600.59
2022-10-19T23:53:46.871Z,100602.72
2022-10-19T23:56:23.045Z,100613.41
2022-10-19T23:58:51.391Z,100617.13
